Time,TemperatureF,DewpointF,PressureIn,WindDirection,WindDirectionDegrees,WindSpeedMPH,WindSpeedGustMPH,Humidity,HourlyPrecipIn,Conditions,Clouds,dailyrainin,SoftwareType,DateUTC
2013-10-25 00:03:00,33.0,29.0,30.11,West,259,4.0,-999.0,85,-99.99,,,-99.99,,2013-10-25 04:03:00,
2013-10-25 00:14:00,34.0,30.0,30.11,WSW,257,4.0,-999.0,84,-99.99,,,-99.99,,2013-10-25 04:14:00,
2013-10-25 00:24:00,33.0,29.0,30.11,West,259,4.0,-999.0,85,-99.99,,,-99.99,,2013-10-25 04:24:00,
2013-10-25 00:34:00,33.0,29.0,30.11,West,259,4.0,-999.0,85,-99.99,,,-99.99,,2013-10-25 04:34:00,
2013-10-25 00:44:00,33.0,29.0,30.11,West,259,4.0,-999.0,85,-99.99,,,-99.99,,2013-10-25 04:44:00,
2013-10-25 00:54:00,33.0,29.0,30.11,West,259,4.0,-999.0,85,-99.99,,,-99.99,,2013-10-25 04:54:00,
2013-10-25 08:51:00,33.0,31.0,30.23,WSW,244,5.0,-999.0,94,-99.99,,,-99.99,,2013-10-25 12:51:00,
2013-10-25 09:11:00,33.0,31.0,30.24,WSW,245,5.0,-999.0,94,-99.99,,,-99.99,,2013-10-25 13:11:00,
2013-10-25 09:21:00,33.0,32.0,30.24,West,263,5.0,-999.0,95,-99.99,,,-99.99,,2013-10-25 13:21:00,
2013-10-25 09:42:00,34.0,32.0,30.24,West,263,3.0,-999.0,94,-99.99,,,-99.99,,2013-10-25 13:42:00,
2013-10-25 09:52:00,34.0,32.0,30.24,WSW,240,4.0,-999.0,94,-99.99,,,-99.99,,2013-10-25 13:52:00,
2013-10-25 10:11:00,35.0,33.0,30.25,WSW,239,5.0,-999.0,94,-99.99,,,-99.99,,2013-10-25 14:11:00,
2013-10-25 10:22:00,35.0,33.0,30.25,WSW,239,5.0,-999.0,94,-99.99,,,-99.99,,2013-10-25 14:22:00,
2013-10-25 10:42:00,37.0,35.0,30.25,West,259,6.0,-999.0,92,-99.99,,,-99.99,,2013-10-25 14:42:00,
2013-10-25 10:52:00,39.0,36.0,30.25,West,269,5.0,-999.0,89,-99.99,,,-99.99,,2013-10-25 14:52:00,
2013-10-25 11:11:00,40.0,36.0,30.25,WSW,250,7.0,-999.0,84,-99.99,,,-99.99,,2013-10-25 15:11:00,
2013-10-25 11:22:00,41.0,35.0,30.24,West,273,7.0,-999.0,80,-99.99,,,-99.99,,2013-10-25 15:22:00,
2013-10-25 11:43:00,42.0,35.0,30.24,West,271,6.0,-999.0,77,-99.99,,,-99.99,,2013-10-25 15:43:00,
2013-10-25 11:53:00,43.0,35.0,30.24,SW,225,7.0,-999.0,73,-99.99,,,-99.99,,2013-10-25 15:53:00,
2013-10-25 12:13:00,43.0,34.0,30.24,WSW,254,7.0,-999.0,69,-99.99,,,-99.99,,2013-10-25 16:13:00,
2013-10-25 12:23:00,44.0,34.0,30.23,West,278,7.0,-999.0,68,-99.99,,,-99.99,,2013-10-25 16:23:00,
2013-10-25 12:43:00,44.0,33.0,30.23,SW,217,8.0,-999.0,66,-99.99,,,-99.99,,2013-10-25 16:43:00,
2013-10-25 12:53:00,44.0,33.0,30.23,SW,214,8.0,-999.0,64,-99.99,,,-99.99,,2013-10-25 16:53:00,
2013-10-25 13:13:00,44.0,33.0,30.23,West,281,9.0,-999.0,64,-99.99,,,-99.99,,2013-10-25 17:13:00,
2013-10-25 13:23:00,44.0,32.0,30.22,West,263,8.0,-999.0,63,-99.99,,,-99.99,,2013-10-25 17:23:00,
2013-10-25 13:33:00,44.0,32.0,30.22,West,263,8.0,-999.0,63,-99.99,,,-99.99,,2013-10-25 17:33:00,
2013-10-25 13:43:00,44.0,32.0,30.22,West,263,8.0,-999.0,63,-99.99,,,-99.99,,2013-10-25 17:43:00,
2013-10-25 13:52:00,44.0,32.0,30.21,West,267,7.0,-999.0,62,-99.99,,,-99.99,,2013-10-25 17:52:00,
2013-10-25 14:12:00,44.0,32.0,30.21,SSW,205,7.0,-999.0,62,-99.99,,,-99.99,,2013-10-25 18:12:00,
2013-10-25 14:22:00,44.0,31.0,30.20,WSW,252,5.0,-999.0,61,-99.99,,,-99.99,,2013-10-25 18:22:00,
2013-10-25 14:52:00,45.0,31.0,30.18,South,186,6.0,-999.0,58,-99.99,,,-99.99,,2013-10-25 18:52:00,
2013-10-25 15:11:00,45.0,31.0,30.18,WNW,294,6.0,-999.0,57,-99.99,,,-99.99,,2013-10-25 19:11:00,
2013-10-25 15:22:00,45.0,30.0,30.17,WSW,248,5.0,-999.0,55,-99.99,,,-99.99,,2013-10-25 19:22:00,
2013-10-25 15:42:00,45.0,29.0,30.17,West,264,8.0,-999.0,53,-99.99,,,-99.99,,2013-10-25 19:42:00,
2013-10-25 15:52:00,45.0,28.0,30.16,SW,215,9.0,-999.0,51,-99.99,,,-99.99,,2013-10-25 19:52:00,
2013-10-25 16:12:00,45.0,27.0,30.16,WNW,287,8.0,-999.0,49,-99.99,,,-99.99,,2013-10-25 20:12:00,
2013-10-25 16:22:00,46.0,28.0,30.15,SW,236,6.0,-999.0,49,-99.99,,,-99.99,,2013-10-25 20:22:00,
2013-10-25 16:42:00,46.0,28.0,30.15,SSW,210,6.0,-999.0,49,-99.99,,,-99.99,,2013-10-25 20:42:00,
2013-10-25 16:52:00,46.0,26.0,30.14,SW,226,8.0,-999.0,46,-99.99,,,-99.99,,2013-10-25 20:52:00,
2013-10-25 17:11:00,46.0,27.0,30.13,SW,227,8.0,-999.0,47,-99.99,,,-99.99,,2013-10-25 21:11:00,
2013-10-25 17:22:00,46.0,28.0,30.13,West,272,5.0,-999.0,49,-99.99,,,-99.99,,2013-10-25 21:22:00,
2013-10-25 17:43:00,46.0,28.0,30.12,SW,221,8.0,-999.0,50,-99.99,,,-99.99,,2013-10-25 21:43:00,
2013-10-25 17:54:00,45.0,28.0,30.12,West,267,8.0,-999.0,51,-99.99,,,-99.99,,2013-10-25 21:54:00,
2013-10-25 18:13:00,45.0,28.0,30.11,WSW,240,8.0,-999.0,52,-99.99,,,-99.99,,2013-10-25 22:13:00,
2013-10-25 18:24:00,45.0,29.0,30.11,West,269,6.0,-999.0,54,-99.99,,,-99.99,,2013-10-25 22:24:00,
2013-10-25 18:42:00,44.0,28.0,30.11,SSW,209,6.0,-999.0,54,-99.99,,,-99.99,,2013-10-25 22:42:00,
2013-10-25 18:52:00,44.0,29.0,30.10,SSW,201,8.0,-999.0,55,-99.99,,,-99.99,,2013-10-25 22:52:00,
2013-10-25 19:13:00,44.0,29.0,30.09,SW,219,8.0,-999.0,56,-99.99,,,-99.99,,2013-10-25 23:13:00,
2013-10-25 19:23:00,44.0,30.0,30.09,SW,219,7.0,-999.0,58,-99.99,,,-99.99,,2013-10-25 23:23:00,
2013-10-25 19:42:00,43.0,30.0,30.09,SW,230,7.0,-999.0,59,-99.99,,,-99.99,,2013-10-25 23:42:00,
2013-10-25 19:52:00,43.0,28.0,30.08,SSW,211,8.0,-999.0,56,-99.99,,,-99.99,,2013-10-25 23:52:00,
2013-10-25 20:11:00,43.0,28.0,30.07,SW,225,9.0,-999.0,56,-99.99,,,-99.99,,2013-10-26 00:11:00,
2013-10-25 20:22:00,43.0,29.0,30.07,SW,224,8.0,-999.0,57,-99.99,,,-99.99,,2013-10-26 00:22:00,
2013-10-25 20:42:00,42.0,29.0,30.06,South,188,6.0,-999.0,59,-99.99,,,-99.99,,2013-10-26 00:42:00,
2013-10-25 20:52:00,42.0,30.0,30.06,South,171,6.0,-999.0,61,-99.99,,,-99.99,,2013-10-26 00:52:00,
2013-10-25 21:12:00,42.0,30.0,30.05,SSE,163,7.0,-999.0,62,-99.99,,,-99.99,,2013-10-26 01:12:00,
2013-10-25 21:22:00,41.0,30.0,30.05,SSW,196,6.0,-999.0,64,-99.99,,,-99.99,,2013-10-26 01:22:00,
2013-10-25 21:42:00,41.0,29.0,30.04,SSE,153,7.0,-999.0,63,-99.99,,,-99.99,,2013-10-26 01:42:00,
2013-10-25 21:52:00,41.0,30.0,30.03,South,180,7.0,-999.0,64,-99.99,,,-99.99,,2013-10-26 01:52:00,
2013-10-25 22:12:00,41.0,30.0,30.01,SSE,148,8.0,-999.0,64,-99.99,,,-99.99,,2013-10-26 02:12:00,
2013-10-25 22:22:00,41.0,30.0,29.99,SSE,162,9.0,-999.0,65,-99.99,,,-99.99,,2013-10-26 02:22:00,
2013-10-25 22:43:00,41.0,30.0,29.98,SSW,198,9.0,-999.0,65,-99.99,,,-99.99,,2013-10-26 02:43:00,
2013-10-25 22:52:00,41.0,30.0,29.98,SSE,168,9.0,-999.0,64,-99.99,,,-99.99,,2013-10-26 02:52:00,
2013-10-25 23:12:00,41.0,30.0,29.98,South,184,9.0,-999.0,64,-99.99,,,-99.99,,2013-10-26 03:12:00,
2013-10-25 23:22:00,42.0,30.0,29.97,SSW,207,9.0,-999.0,63,-99.99,,,-99.99,,2013-10-26 03:22:00,
2013-10-25 23:44:00,42.0,30.0,29.96,SSW,196,9.0,-999.0,62,-99.99,,,-99.99,,2013-10-26 03:44:00,
2013-10-25 23:54:00,42.0,30.0,29.95,South,170,9.0,-999.0,62,-99.99,,,-99.99,,2013-10-26 03:54:00,